Almeria, Nebraska
Current Conditions -  °F | °C
As of 4:37 PM on Wednesday 22 Oct 2014 (Local Time) from KODX Reporting Station
Overcast Overcast  
Wind Chill: 17°   Ceiling: 1500
Heat Index: 17°   Visibility: 10mi
Dew Point: 13°   Wind: 5mph
Humidity: 80%   Direction: 260°W
Pressure: 30"   Gusts: NA
Location:  41.914°N, 99.4547°W
Report Text: KODX 222137Z AUTO 26004KT 10SM OVC015 17/13 A3000 RMK AO2 T01670133 $
Loading
Personal Weather Stations






























Interactive Weather Map
Tropical Storm Tracking
New forecast layout! Learn more

10-Day Weather Forecast

Advertisements
Track Severe Weather on mobile